Time;durP1;ratioP1;P1;durP2;ratioP2;P2;SDS_P1;SDS_P2;PMS_P1;PMS_P2;Temp;Humidity;BMP_temperature;BMP_pressure;BME280_temperature;BME280_humidity;BME280_pressure;Samples;Min_cycle;Max_cycle;Signal;HPM_P1;HPM_P2
2021/11/30 00:00:50;;;;;;;9.55;5.28;;;5.50;99.90;;;;;;5008382;28;20049;-85
2021/11/30 00:03:41;;;;;;;13.93;5.85;;;6.20;99.90;;;;;;4996158;28;20058;-86
2021/11/30 00:06:12;;;;;;;14.73;6.60;;;5.40;99.90;;;;;;5010209;28;20064;-86
2021/11/30 00:12:20;;;;;;;15.30;7.22;;;5.30;99.90;;;;;;5007396;28;20050;-84
2021/11/30 00:16:01;;;;;;;11.73;6.20;;;5.90;99.90;;;;;;5020374;28;20045;-85
2021/11/30 00:19:43;;;;;;;9.48;5.60;;;6.50;99.90;;;;;;5016819;28;20057;-85
2021/11/30 00:22:19;;;;;;;13.38;5.63;;;5.40;99.90;;;;;;5023455;28;20065;-85
2021/11/30 00:25:38;;;;;;;7.65;5.05;;;6.20;99.90;;;;;;5019471;28;20523;-84
2021/11/30 00:28:19;;;;;;;12.02;6.22;;;5.70;99.90;;;;;;5022753;28;20056;-84
2021/11/30 00:31:45;;;;;;;11.63;4.97;;;5.60;99.90;;;;;;5034509;28;20057;-84
2021/11/30 00:34:18;;;;;;;12.43;5.30;;;4.80;99.90;;;;;;4997642;28;20550;-83
2021/11/30 00:36:48;;;;;;;16.80;6.25;;;5.60;99.90;;;;;;5005263;28;20412;-84
2021/11/30 00:46:36;;;;;;;10.63;4.95;;;6.00;99.90;;;;;;5022110;28;20060;-84
2021/11/30 00:53:15;;;;;;;13.75;6.63;;;5.80;99.90;;;;;;4988988;28;20046;-85
2021/11/30 00:56:00;;;;;;;10.90;5.55;;;5.90;99.90;;;;;;5004318;28;20057;-85
2021/11/30 00:58:28;;;;;;;12.55;4.95;;;4.90;99.90;;;;;;4983753;28;20046;-85
2021/11/30 01:00:57;;;;;;;7.40;4.38;;;6.50;99.90;;;;;;5003950;28;20065;-84
2021/11/30 01:03:41;;;;;;;11.25;5.72;;;7.40;99.90;;;;;;5021372;28;20057;-85
2021/11/30 01:06:17;;;;;;;15.75;6.80;;;6.20;99.90;;;;;;4985699;28;20050;-84
2021/11/30 01:08:45;;;;;;;;;;;5.90;99.90;;;;;;5020887;28;20053;-84
2021/11/30 01:11:42;;;;;;;;;;;;;;;;;;;;;
2021/11/30 01:15:27;;;;;;;13.60;6.07;;;6.40;99.90;;;;;;4984220;28;20057;-84
2021/11/30 01:18:59;;;;;;;12.80;5.55;;;6.40;99.90;;;;;;5029893;28;20046;-84
2021/11/30 01:22:16;;;;;;;9.15;4.90;;;6.30;99.90;;;;;;5004159;28;20050;-85
2021/11/30 01:25:33;;;;;;;12.80;6.28;;;6.40;99.90;;;;;;4996455;28;20061;-85
2021/11/30 01:28:13;;;;;;;12.90;6.65;;;6.50;99.90;;;;;;5020472;28;20058;-84
2021/11/30 01:34:23;;;;;;;14.07;6.97;;;6.60;99.90;;;;;;4986085;28;20064;-86
2021/11/30 01:37:04;;;;;;;12.52;6.07;;;6.60;99.90;;;;;;4970495;28;20149;-84
2021/11/30 01:39:37;;;;;;;16.05;8.18;;;6.60;99.90;;;;;;5005022;28;20042;-84
2021/11/30 01:42:45;;;;;;;13.60;6.88;;;6.80;99.90;;;;;;4987503;28;20251;-84
2021/11/30 01:49:29;;;;;;;14.02;6.78;;;7.10;99.90;;;;;;5022685;28;20054;-84
2021/11/30 01:55:18;;;;;;;12.90;6.13;;;6.80;99.90;;;;;;5025132;28;20050;-84
2021/11/30 01:58:09;;;;;;;13.43;5.57;;;5.70;99.90;;;;;;4994203;28;20558;-84
2021/11/30 02:00:40;;;;;;;16.02;7.85;;;6.80;99.90;;;;;;5008642;28;20053;-85
2021/11/30 02:03:08;;;;;;;;;;;6.90;99.90;;;;;;4994522;28;20049;-86
2021/11/30 02:05:39;;;;;;;12.80;6.18;;;5.40;99.90;;;;;;4990091;28;19921;-84
2021/11/30 02:08:10;;;;;;;15.38;8.52;;;6.90;99.90;;;;;;5008786;28;20052;-85
2021/11/30 02:10:40;;;;;;;11.18;6.25;;;7.40;99.90;;;;;;5010195;28;20050;-85
2021/11/30 02:13:09;;;;;;;14.52;6.80;;;7.10;99.90;;;;;;5005037;28;20053;-85
2021/11/30 02:15:55;;;;;;;34.63;8.55;;;6.90;99.90;;;;;;5034922;28;20053;-85
2021/11/30 02:21:56;;;;;;;17.17;8.25;;;7.30;99.90;;;;;;4988976;28;20050;-84
2021/11/30 02:24:29;;;;;;;19.63;8.95;;;7.00;99.90;;;;;;5025922;28;20050;-84
2021/11/30 02:27:02;;;;;;;13.30;7.15;;;6.40;99.90;;;;;;5025540;28;20613;-86
2021/11/30 02:29:39;;;;;;;17.48;8.82;;;7.10;99.90;;;;;;5009033;28;20050;-84
2021/11/30 02:32:08;;;;;;;18.33;8.82;;;7.00;99.90;;;;;;4975521;28;20058;-85
2021/11/30 02:34:52;;;;;;;;;;;;;;;;;;;;;
2021/11/30 02:37:44;;;;;;;24.60;10.48;;;7.10;99.90;;;;;;5005490;28;20065;-83
2021/11/30 02:40:32;;;;;;;;;;;;;;;;;;;;;
2021/11/30 02:43:28;;;;;;;21.60;10.20;;;7.10;99.90;;;;;;5006548;28;20056;-84
2021/11/30 02:49:47;;;;;;;20.80;9.02;;;8.20;99.90;;;;;;5022086;28;20065;-84
2021/11/30 02:52:58;;;;;;;14.50;7.20;;;7.20;99.90;;;;;;5024239;28;20057;-84
2021/11/30 02:56:31;;;;;;;;;;;;;;;;;;;;;
2021/11/30 02:59:38;;;;;;;20.08;10.07;;;7.20;99.90;;;;;;5024931;28;20054;-84
2021/11/30 03:02:44;;;;;;;18.38;9.40;;;7.30;99.90;;;;;;4978707;28;20054;-85
2021/11/30 03:05:53;;;;;;;23.33;10.82;;;7.30;99.90;;;;;;5034563;28;20037;-84
2021/11/30 03:08:28;;;;;;;20.25;9.68;;;7.30;99.90;;;;;;5009334;28;20049;-84
2021/11/30 03:11:24;;;;;;;21.83;9.00;;;7.60;99.90;;;;;;5011179;28;20041;-84
2021/11/30 03:17:56;;;;;;;22.95;11.18;;;7.40;99.90;;;;;;4968495;28;20054;-83
2021/11/30 03:21:00;;;;;;;18.27;10.13;;;7.30;99.90;;;;;;5024510;28;20050;-84
2021/11/30 03:23:28;;;;;;;19.35;10.57;;;7.90;99.90;;;;;;5009208;28;20058;-85
2021/11/30 03:26:00;;;;;;;21.40;9.23;;;6.30;99.90;;;;;;5026420;28;20046;-85
2021/11/30 03:28:54;;;;;;;21.40;11.50;;;7.50;99.90;;;;;;5028901;28;20038;-84
2021/11/30 03:34:52;;;;;;;20.60;9.55;;;7.60;99.90;;;;;;5001616;28;20050;-84
2021/11/30 03:41:17;;;;;;;16.48;8.82;;;7.70;99.90;;;;;;5008877;28;20122;-84
2021/11/30 03:43:52;;;;;;;18.38;7.53;;;6.80;99.90;;;;;;5018536;28;20069;-84
2021/11/30 03:46:41;;;;;;;21.42;10.77;;;7.80;99.90;;;;;;5022555;28;20057;-84
2021/11/30 03:50:00;;;;;;;20.45;8.77;;;7.70;99.90;;;;;;5020595;28;20060;-84
2021/11/30 03:53:20;;;;;;;15.05;8.05;;;7.70;99.90;;;;;;5005584;28;20054;-83
2021/11/30 03:56:06;;;;;;;15.63;5.68;;;7.80;99.90;;;;;;5024125;28;20045;-84
2021/11/30 03:58:34;;;;;;;22.05;8.68;;;7.90;99.90;;;;;;5024423;28;20042;-85
2021/11/30 04:01:37;;;;;;;12.93;7.30;;;7.80;99.90;;;;;;5002920;28;20058;-84
2021/11/30 04:04:42;;;;;;;15.02;7.72;;;8.50;99.90;;;;;;5018401;28;20053;-85
2021/11/30 04:07:57;;;;;;;16.30;7.93;;;7.90;99.90;;;;;;4996874;28;20046;-84
2021/11/30 04:10:26;;;;;;;12.88;6.45;;;7.90;99.90;;;;;;5023048;28;20061;-85
2021/11/30 04:13:10;;;;;;;;;;;;;;;;;;;;;
2021/11/30 04:17:09;;;;;;;;;;;;;;;;;;;;;
2021/11/30 04:20:53;;;;;;;;;;;;;;;;;;;;;
2021/11/30 04:24:31;;;;;;;15.30;7.68;;;8.00;99.90;;;;;;5001161;28;20062;-84
2021/11/30 04:27:04;;;;;;;12.95;6.80;;;7.30;99.90;;;;;;4988567;28;20058;-84
2021/11/30 04:29:39;;;;;;;18.92;7.90;;;8.00;99.90;;;;;;4971390;28;20050;-84
2021/11/30 04:32:08;;;;;;;20.90;8.30;;;8.00;99.90;;;;;;4969774;28;20061;-84
2021/11/30 04:35:32;;;;;;;;;;;;;;;;;;;;;
2021/11/30 04:38:31;;;;;;;14.07;7.00;;;8.00;99.90;;;;;;4985268;28;20112;-85
2021/11/30 04:41:11;;;;;;;15.13;7.53;;;8.10;99.90;;;;;;5006103;28;20524;-84
2021/11/30 04:43:40;;;;;;;14.35;6.95;;;8.00;99.90;;;;;;5003859;28;20038;-85
2021/11/30 04:46:47;;;;;;;13.02;5.63;;;8.20;99.90;;;;;;4958215;28;20119;-85
2021/11/30 04:49:57;;;;;;;17.60;8.18;;;6.90;99.90;;;;;;4959581;29;20064;-85
2021/11/30 04:53:27;;;;;;;14.65;6.30;;;8.00;99.90;;;;;;4942431;29;20051;-84
2021/11/30 04:56:26;;;;;;;13.63;6.10;;;8.00;99.90;;;;;;4948306;29;20055;-86
2021/11/30 04:59:59;;;;;;;13.23;6.28;;;8.10;99.90;;;;;;4944389;29;20070;-85
2021/11/30 05:03:09;;;;;;;14.95;7.45;;;8.00;99.90;;;;;;4945207;29;20100;-85
2021/11/30 05:05:43;;;;;;;13.05;7.22;;;8.10;99.90;;;;;;4945896;29;20047;-86
2021/11/30 05:08:17;;;;;;;11.50;6.10;;;8.00;99.90;;;;;;4931483;29;20066;-85
2021/11/30 05:11:27;;;;;;;15.45;9.05;;;8.10;99.90;;;;;;4947333;29;20062;-84
2021/11/30 05:14:25;;;;;;;9.75;5.60;;;7.30;99.90;;;;;;4931160;29;20066;-84
2021/11/30 05:17:26;;;;;;;9.77;5.60;;;8.10;99.90;;;;;;4947194;29;20048;-85
2021/11/30 05:20:05;;;;;;;11.43;5.65;;;8.00;99.90;;;;;;4981629;28;20045;-86
2021/11/30 05:22:49;;;;;;;12.25;5.63;;;8.00;99.90;;;;;;5007498;28;20042;-84
2021/11/30 05:25:35;;;;;;;11.60;6.05;;;7.90;99.90;;;;;;5005979;28;20059;-86
2021/11/30 05:28:23;;;;;;;10.90;6.15;;;8.00;99.90;;;;;;5004222;28;20042;-85
2021/11/30 05:31:03;;;;;;;12.63;5.90;;;8.00;99.90;;;;;;4970466;28;20050;-85
2021/11/30 05:34:05;;;;;;;12.63;5.45;;;7.80;99.90;;;;;;4988848;28;20051;-85
2021/11/30 05:37:40;;;;;;;9.60;4.43;;;8.00;99.90;;;;;;4987037;28;20061;-84
2021/11/30 05:40:22;;;;;;;14.05;6.68;;;7.90;99.90;;;;;;4971578;28;20061;-84
2021/11/30 05:43:27;;;;;;;;;;;;;;;;;;;;;
2021/11/30 05:46:39;;;;;;;10.38;5.30;;;8.00;99.90;;;;;;4970229;28;20040;-84
2021/11/30 05:50:02;;;;;;;;;;;;;;;;;;;;;
2021/11/30 05:53:13;;;;;;;13.73;5.03;;;8.00;99.90;;;;;;4978889;28;20051;-84
2021/11/30 05:56:09;;;;;;;12.95;4.95;;;8.00;99.90;;;;;;4981644;28;20613;-85
2021/11/30 05:59:03;;;;;;;9.55;5.45;;;9.10;99.90;;;;;;4985974;28;20100;-85
2021/11/30 06:01:55;;;;;;;13.70;5.57;;;7.90;99.90;;;;;;4996773;28;20634;-84
2021/11/30 06:09:10;;;;;;;9.38;4.68;;;8.00;99.90;;;;;;4975665;28;20061;-85
2021/11/30 06:11:45;;;;;;;15.15;5.95;;;8.00;99.90;;;;;;4984677;28;20066;-86
2021/11/30 06:14:53;;;;;;;10.20;5.22;;;8.10;99.90;;;;;;4984011;28;20050;-85
2021/11/30 06:17:46;;;;;;;7.38;4.45;;;8.20;99.90;;;;;;4953395;28;20065;-84
2021/11/30 06:20:17;;;;;;;10.00;4.97;;;8.20;99.90;;;;;;4954167;28;20061;-85
2021/11/30 06:22:54;;;;;;;10.05;4.75;;;8.20;99.90;;;;;;4967175;28;20073;-85
2021/11/30 06:25:38;;;;;;;9.80;5.22;;;8.30;99.90;;;;;;4980763;28;20050;-85
2021/11/30 06:28:30;;;;;;;6.88;3.95;;;8.40;99.90;;;;;;4990594;28;20054;-84
2021/11/30 06:31:06;;;;;;;9.32;4.78;;;8.40;99.90;;;;;;4989575;28;20084;-85
2021/11/30 06:33:53;;;;;;;6.78;4.50;;;8.50;99.90;;;;;;4974162;28;20061;-85
2021/11/30 06:36:45;;;;;;;8.75;4.57;;;8.40;99.90;;;;;;4992519;28;20051;-84
2021/11/30 06:39:28;;;;;;;8.52;5.10;;;8.60;99.90;;;;;;4989391;28;20056;-86
2021/11/30 06:42:10;;;;;;;9.27;5.20;;;8.50;99.90;;;;;;4995705;28;20272;-85
2021/11/30 06:44:42;;;;;;;10.93;5.45;;;8.50;99.90;;;;;;5022158;28;20034;-86
2021/11/30 06:47:33;;;;;;;7.82;4.97;;;8.50;99.90;;;;;;5017915;28;20046;-84
2021/11/30 06:50:44;;;;;;;14.88;5.03;;;8.60;99.90;;;;;;4991262;28;20046;-84
2021/11/30 06:53:18;;;;;;;9.80;5.15;;;8.20;99.90;;;;;;4988279;28;20034;-85
2021/11/30 06:56:01;;;;;;;6.13;3.63;;;8.70;99.90;;;;;;4978983;28;20072;-85
2021/11/30 06:58:45;;;;;;;8.48;4.88;;;8.70;99.90;;;;;;4971035;28;20056;-84
2021/11/30 07:02:13;;;;;;;6.78;4.70;;;8.60;99.90;;;;;;4949803;29;20051;-85
2021/11/30 07:04:55;;;;;;;9.07;4.30;;;8.80;99.90;;;;;;4940272;29;20065;-86
2021/11/30 07:07:47;;;;;;;5.93;3.70;;;8.30;99.90;;;;;;4946672;29;20042;-87
2021/11/30 07:10:46;;;;;;;5.30;3.75;;;8.70;99.90;;;;;;4972587;28;20051;-85
2021/11/30 07:13:29;;;;;;;9.98;3.58;;;8.80;99.90;;;;;;4970785;28;20089;-84
2021/11/30 07:16:38;;;;;;;6.78;4.20;;;8.70;99.90;;;;;;4977082;28;20098;-84
2021/11/30 07:19:23;;;;;;;5.97;3.95;;;8.90;99.90;;;;;;4954971;28;20058;-86
2021/11/30 07:21:55;;;;;;;7.80;3.42;;;8.80;99.90;;;;;;4942466;29;20059;-85
2021/11/30 07:24:26;;;;;;;;;;;8.80;99.90;;;;;;4947178;28;20076;-86
2021/11/30 07:26:58;;;;;;;7.32;4.57;;;8.80;99.90;;;;;;4952342;28;20467;-85
2021/11/30 07:29:39;;;;;;;9.88;4.03;;;8.90;99.90;;;;;;4943979;28;20048;-85
2021/11/30 07:32:33;;;;;;;7.32;3.78;;;8.80;99.90;;;;;;4995453;28;20068;-85
2021/11/30 07:35:24;;;;;;;;;;;;;;;;;;;;;
2021/11/30 07:38:20;;;;;;;6.47;3.83;;;9.00;99.90;;;;;;5010213;28;20035;-83
2021/11/30 07:40:53;;;;;;;6.90;4.32;;;8.90;99.90;;;;;;5010049;28;20049;-82
2021/11/30 07:43:22;;;;;;;7.90;3.65;;;9.00;99.90;;;;;;5013718;28;20050;-83
2021/11/30 07:45:53;;;;;;;5.93;4.30;;;9.00;99.90;;;;;;4987832;28;20042;-81
2021/11/30 07:48:31;;;;;;;;;;;;;;;;;;;;;
2021/11/30 07:51:21;;;;;;;11.30;3.63;;;9.00;99.90;;;;;;5004912;28;20060;-83
2021/11/30 07:53:54;;;;;;;5.22;4.15;;;8.70;99.90;;;;;;5020240;28;20050;-84
2021/11/30 07:56:25;;;;;;;8.00;4.15;;;9.00;99.90;;;;;;5006704;28;20053;-82
2021/11/30 07:59:21;;;;;;;24.70;5.68;;;9.10;99.90;;;;;;4999362;28;20058;-84
2021/11/30 08:02:15;;;;;;;7.60;3.97;;;9.90;99.90;;;;;;4994322;28;20065;-83
2021/11/30 08:05:12;;;;;;;;;;;;;;;;;;;;;
2021/11/30 08:08:00;;;;;;;7.60;4.55;;;9.40;99.90;;;;;;5024757;28;20049;-86
2021/11/30 08:10:29;;;;;;;6.82;3.50;;;9.20;99.90;;;;;;5007439;28;20057;-83
2021/11/30 08:12:58;;;;;;;7.60;4.15;;;9.20;99.90;;;;;;4990491;28;20053;-83
2021/11/30 08:15:27;;;;;;;6.45;3.53;;;9.20;99.90;;;;;;5024972;28;20050;-82
2021/11/30 08:18:01;;;;;;;10.15;4.68;;;9.30;99.90;;;;;;5008600;28;20052;-82
2021/11/30 08:21:02;;;;;;;;;;;9.30;99.90;;;;;;5023381;28;20058;-81
2021/11/30 08:23:34;;;;;;;7.47;3.97;;;9.20;99.90;;;;;;5040653;28;19928;-85
2021/11/30 08:26:04;;;;;;;8.23;4.35;;;9.20;99.90;;;;;;5007167;28;20282;-82
2021/11/30 08:28:33;;;;;;;9.30;4.75;;;9.20;99.90;;;;;;5022009;28;20060;-82
2021/11/30 08:31:03;;;;;;;8.90;5.13;;;9.20;99.90;;;;;;5023681;28;20057;-83
2021/11/30 08:33:40;;;;;;;5.97;3.78;;;9.20;99.90;;;;;;5005899;28;20045;-81
2021/11/30 08:36:11;;;;;;;8.70;3.88;;;8.70;99.90;;;;;;5004702;28;20057;-81
2021/11/30 08:38:44;;;;;;;3.78;2.72;;;9.30;99.90;;;;;;5009902;28;20052;-84
2021/11/30 08:41:20;;;;;;;9.10;3.45;;;9.30;99.90;;;;;;5006649;28;20050;-82
2021/11/30 08:43:50;;;;;;;7.05;4.57;;;9.30;99.90;;;;;;5006241;28;20906;-83
2021/11/30 08:46:42;;;;;;;8.27;4.50;;;9.40;99.90;;;;;;5012719;28;20054;-83
2021/11/30 08:49:18;;;;;;;7.88;4.03;;;9.70;99.90;;;;;;5027612;28;20049;-83
2021/11/30 08:51:56;;;;;;;;;;;9.40;99.90;;;;;;5021776;28;20063;-83
2021/11/30 08:54:39;;;;;;;5.43;3.60;;;9.40;99.90;;;;;;5016077;28;19917;-83
2021/11/30 08:57:15;;;;;;;5.45;3.10;;;9.50;99.90;;;;;;5033241;28;20046;-83
2021/11/30 08:59:50;;;;;;;9.25;3.78;;;9.50;99.90;;;;;;5030043;28;20247;-84
2021/11/30 09:02:21;;;;;;;7.97;3.67;;;9.60;99.90;;;;;;5033280;28;20059;-83
2021/11/30 09:04:52;;;;;;;9.07;2.95;;;9.60;99.90;;;;;;5029217;28;20050;-83
2021/11/30 09:07:27;;;;;;;5.93;3.92;;;9.60;99.90;;;;;;5003603;28;20053;-82
2021/11/30 09:10:01;;;;;;;8.60;3.38;;;9.70;99.90;;;;;;5022283;28;20063;-82
2021/11/30 09:12:41;;;;;;;4.70;2.90;;;9.90;99.90;;;;;;4991235;28;20037;-83
2021/11/30 09:15:10;;;;;;;3.10;2.58;;;9.80;99.90;;;;;;5024662;28;20056;-83
2021/11/30 09:17:50;;;;;;;10.88;3.35;;;9.90;99.90;;;;;;5018008;28;20057;-82
2021/11/30 09:20:24;;;;;;;14.57;5.10;;;10.00;99.90;;;;;;5008898;28;20054;-83
2021/11/30 09:22:58;;;;;;;4.55;3.05;;;9.90;99.90;;;;;;5012305;28;20045;-82
2021/11/30 09:25:39;;;;;;;9.77;3.55;;;10.00;99.90;;;;;;5026824;28;20041;-83
2021/11/30 09:28:22;;;;;;;12.05;4.43;;;10.10;99.90;;;;;;5032714;28;20060;-83
2021/11/30 09:30:58;;;;;;;10.47;4.00;;;10.10;99.90;;;;;;5047683;28;20042;-83
2021/11/30 09:33:44;;;;;;;7.60;3.75;;;10.10;99.90;;;;;;5007779;28;20053;-82
2021/11/30 09:36:16;;;;;;;8.65;4.20;;;10.50;99.90;;;;;;5042313;28;20113;-82
2021/11/30 09:38:47;;;;;;;9.00;4.45;;;10.20;99.90;;;;;;5032660;28;20480;-82
2021/11/30 09:41:17;;;;;;;14.18;3.90;;;9.20;99.90;;;;;;5055866;28;20045;-82
2021/11/30 09:44:11;;;;;;;8.48;4.28;;;10.20;99.90;;;;;;5006522;28;20066;-83
2021/11/30 09:46:44;;;;;;;10.95;4.30;;;10.30;99.90;;;;;;5022394;28;20042;-81
2021/11/30 09:49:20;;;;;;;9.45;4.78;;;10.50;99.90;;;;;;5033816;28;20064;-84
2021/11/30 09:51:50;;;;;;;8.20;3.60;;;9.30;99.90;;;;;;5013297;28;20046;-87
2021/11/30 09:54:19;;;;;;;9.38;4.10;;;10.40;99.90;;;;;;5050960;28;20052;-84
2021/11/30 09:56:47;;;;;;;8.40;4.00;;;10.40;99.90;;;;;;5046749;28;20059;-84
2021/11/30 09:59:16;;;;;;;6.07;3.65;;;10.40;99.90;;;;;;5028671;28;20038;-84
2021/11/30 10:01:44;;;;;;;10.05;4.32;;;10.50;99.90;;;;;;5033725;28;20060;-85
2021/11/30 10:04:21;;;;;;;7.53;3.70;;;10.50;99.90;;;;;;5037712;28;20062;-84
2021/11/30 10:07:06;;;;;;;7.43;4.18;;;10.50;99.90;;;;;;5023360;28;20056;-85
2021/11/30 10:09:35;;;;;;;8.45;4.18;;;10.60;99.90;;;;;;5044829;28;20106;-84
2021/11/30 10:12:09;;;;;;;9.52;3.78;;;10.60;99.90;;;;;;5034444;28;20049;-84
2021/11/30 10:14:41;;;;;;;9.10;4.20;;;10.70;99.90;;;;;;5000280;28;20053;-84
2021/11/30 10:17:22;;;;;;;10.55;3.92;;;10.80;99.90;;;;;;5043529;28;20042;-84
2021/11/30 10:20:07;;;;;;;6.10;3.38;;;10.80;99.90;;;;;;5025649;28;20062;-84
2021/11/30 10:22:57;;;;;;;8.98;4.88;;;10.90;99.90;;;;;;5018669;28;20042;-83
2021/11/30 10:25:34;;;;;;;8.38;4.47;;;10.90;99.90;;;;;;5029171;28;20060;-83
2021/11/30 10:28:08;;;;;;;8.50;4.10;;;10.90;99.90;;;;;;5024814;28;20056;-84
2021/11/30 10:30:45;;;;;;;11.43;4.78;;;11.00;99.90;;;;;;5029249;28;20057;-85
2021/11/30 10:33:22;;;;;;;10.45;4.45;;;10.70;99.90;;;;;;5029137;28;20188;-84
2021/11/30 10:35:58;;;;;;;10.52;5.00;;;11.10;99.90;;;;;;4994831;28;20068;-84
2021/11/30 10:38:36;;;;;;;11.13;4.60;;;11.10;99.90;;;;;;5017644;28;20045;-83
2021/11/30 10:41:23;;;;;;;7.82;4.10;;;11.20;99.90;;;;;;5030241;28;20046;-84
2021/11/30 10:43:57;;;;;;;13.93;3.63;;;11.20;99.90;;;;;;5028636;28;20052;-84
2021/11/30 10:47:05;;;;;;;5.72;3.22;;;11.30;99.90;;;;;;5045400;28;20411;-85
2021/11/30 10:49:42;;;;;;;7.63;3.70;;;11.30;99.90;;;;;;5022052;28;20050;-85
2021/11/30 10:52:15;;;;;;;7.35;3.55;;;11.40;99.90;;;;;;5037087;28;20045;-84
2021/11/30 10:55:16;;;;;;;8.48;3.95;;;11.40;99.90;;;;;;5036475;28;20045;-84
2021/11/30 10:57:55;;;;;;;6.45;3.63;;;11.50;99.90;;;;;;5021839;28;20038;-83
2021/11/30 11:00:31;;;;;;;8.10;4.00;;;11.70;99.90;;;;;;5014236;28;20061;-84
2021/11/30 11:09:01;;;;;;;4.18;2.60;;;11.50;99.90;;;;;;5008188;28;20100;-83
2021/11/30 11:11:35;;;;;;;6.82;3.08;;;11.60;99.90;;;;;;5021144;28;20060;-84
2021/11/30 11:14:25;;;;;;;6.85;3.50;;;11.70;99.90;;;;;;5029382;28;20072;-85
2021/11/30 11:17:02;;;;;;;7.30;3.28;;;11.70;99.90;;;;;;5023639;28;20049;-83
2021/11/30 11:19:51;;;;;;;8.65;3.17;;;11.70;99.90;;;;;;5033634;28;20065;-84
2021/11/30 11:22:23;;;;;;;6.30;3.05;;;11.60;99.90;;;;;;5028846;28;20060;-84
2021/11/30 11:24:56;;;;;;;5.22;2.75;;;11.70;99.90;;;;;;5013283;28;20058;-85
2021/11/30 11:28:14;;;;;;;;;;;;;;;;;;;;;
2021/11/30 11:30:56;;;;;;;8.07;3.55;;;12.50;99.90;;;;;;5030138;28;20050;-83
2021/11/30 11:33:32;;;;;;;7.63;2.85;;;11.70;99.90;;;;;;5011585;28;20046;-85
2021/11/30 11:36:10;;;;;;;5.85;3.53;;;11.70;99.90;;;;;;5013270;28;20053;-83
2021/11/30 11:38:53;;;;;;;4.30;2.88;;;11.70;99.90;;;;;;5031563;28;20058;-84
2021/11/30 11:41:29;;;;;;;9.07;2.97;;;11.80;99.90;;;;;;5017007;28;20059;-84
2021/11/30 11:44:02;;;;;;;6.80;2.85;;;12.40;99.90;;;;;;5028567;28;20061;-83
2021/11/30 11:46:36;;;;;;;5.57;2.70;;;11.90;99.90;;;;;;5027748;28;20050;-83
2021/11/30 11:49:09;;;;;;;5.90;3.13;;;11.90;99.90;;;;;;5030806;28;20042;-85
2021/11/30 11:51:46;;;;;;;5.22;3.17;;;11.90;99.90;;;;;;5034454;28;20060;-83
2021/11/30 11:54:37;;;;;;;5.22;3.45;;;12.00;99.90;;;;;;5028568;28;20058;-82
2021/11/30 11:57:24;;;;;;;11.13;3.08;;;12.10;99.90;;;;;;5027053;28;20427;-84
2021/11/30 12:00:45;;;;;;;5.93;2.67;;;12.00;99.90;;;;;;4993133;28;20044;-84
2021/11/30 12:03:58;;;;;;;6.25;2.75;;;11.90;99.90;;;;;;4990184;28;20066;-84
2021/11/30 12:06:28;;;;;;;;;;;12.00;99.90;;;;;;5022625;28;20045;-84
2021/11/30 12:09:32;;;;;;;4.97;2.65;;;12.10;99.90;;;;;;5026733;28;19922;-84
2021/11/30 12:12:24;;;;;;;7.10;3.42;;;12.10;99.90;;;;;;5009956;28;20062;-85
2021/11/30 12:15:16;;;;;;;10.13;4.20;;;12.10;99.90;;;;;;5014006;28;20805;-83
2021/11/30 12:18:29;;;;;;;8.23;3.33;;;13.00;99.90;;;;;;5024316;28;20165;-85
2021/11/30 12:21:12;;;;;;;8.45;3.75;;;12.20;99.90;;;;;;5022849;28;20041;-85
2021/11/30 12:23:45;;;;;;;10.95;4.63;;;12.10;99.90;;;;;;5007948;28;20056;-84
2021/11/30 12:26:37;;;;;;;11.02;5.47;;;12.20;99.90;;;;;;5033962;28;20033;-83
2021/11/30 12:29:17;;;;;;;10.85;3.72;;;12.10;99.90;;;;;;5031696;28;20064;-83
2021/11/30 12:31:47;;;;;;;13.40;4.32;;;12.10;99.90;;;;;;5034613;28;20038;-84
2021/11/30 12:34:35;;;;;;;8.15;4.25;;;12.10;99.90;;;;;;5013008;28;20060;-83
2021/11/30 12:37:09;;;;;;;12.95;5.32;;;12.10;99.90;;;;;;4988886;28;20062;-83
2021/11/30 12:40:05;;;;;;;8.00;3.75;;;12.00;99.90;;;;;;5027808;28;20045;-82
2021/11/30 12:42:40;;;;;;;11.73;4.53;;;12.10;99.90;;;;;;5017058;28;20053;-83
2021/11/30 12:45:40;;;;;;;10.32;4.60;;;12.10;99.90;;;;;;5010519;28;20049;-82
2021/11/30 12:48:43;;;;;;;13.07;4.05;;;12.10;99.90;;;;;;5017466;28;20104;-82
2021/11/30 12:51:37;;;;;;;7.13;3.60;;;12.10;99.90;;;;;;4930724;29;20115;-83
2021/11/30 12:54:23;;;;;;;9.38;4.20;;;12.00;99.90;;;;;;5022700;28;20615;-82
2021/11/30 12:57:01;;;;;;;10.05;4.57;;;12.20;99.90;;;;;;4995613;28;20057;-83
2021/11/30 12:59:48;;;;;;;9.73;3.95;;;12.30;99.90;;;;;;5030320;28;20050;-83
2021/11/30 13:02:45;;;;;;;6.13;3.90;;;12.30;99.90;;;;;;5022838;28;20054;-83
2021/11/30 13:05:15;;;;;;;9.80;3.90;;;12.40;99.90;;;;;;5023284;28;20050;-83
2021/11/30 13:07:49;;;;;;;11.25;3.78;;;12.40;99.90;;;;;;5004500;28;20060;-82
2021/11/30 13:10:34;;;;;;;8.25;4.70;;;12.40;99.90;;;;;;5004489;28;20058;-83
2021/11/30 13:13:20;;;;;;;11.52;6.25;;;12.40;99.90;;;;;;5027167;28;20065;-86
2021/11/30 13:15:58;;;;;;;12.57;5.15;;;12.30;99.90;;;;;;5045657;28;20054;-85
2021/11/30 13:18:33;;;;;;;12.90;5.47;;;12.40;99.90;;;;;;5021166;28;20053;-85
2021/11/30 13:21:01;;;;;;;13.35;6.45;;;12.40;99.90;;;;;;5021480;28;20056;-85
2021/11/30 13:23:31;;;;;;;14.85;5.63;;;12.40;99.90;;;;;;5006863;28;20053;-88
2021/11/30 13:25:59;;;;;;;12.98;4.90;;;12.40;99.90;;;;;;5039137;28;20046;-81
2021/11/30 13:28:29;;;;;;;11.55;5.30;;;12.40;99.90;;;;;;5021154;28;20053;-83
2021/11/30 13:31:03;;;;;;;14.65;5.45;;;12.40;99.90;;;;;;5004381;28;20049;-83
2021/11/30 13:33:32;;;;;;;13.82;4.47;;;12.40;99.90;;;;;;5020306;28;20041;-83
2021/11/30 13:36:11;;;;;;;;;;;12.30;99.90;;;;;;5004725;28;20045;-85
2021/11/30 13:38:47;;;;;;;14.00;4.90;;;12.30;99.90;;;;;;5001956;28;19931;-81
2021/11/30 13:41:19;;;;;;;13.27;4.85;;;12.40;99.90;;;;;;5021035;28;20049;-85
2021/11/30 13:43:53;;;;;;;10.63;4.63;;;12.40;99.90;;;;;;5006715;28;20049;-83
2021/11/30 13:46:26;;;;;;;18.52;6.57;;;12.40;99.90;;;;;;5023224;28;20559;-82
2021/11/30 13:49:00;;;;;;;10.20;4.70;;;12.40;99.90;;;;;;5023811;28;20072;-85
2021/11/30 13:51:37;;;;;;;18.73;5.70;;;12.30;99.90;;;;;;5024471;28;20054;-84
2021/11/30 13:54:20;;;;;;;13.10;5.65;;;12.30;99.90;;;;;;5024680;28;20066;-87
2021/11/30 13:57:21;;;;;;;12.75;4.65;;;12.30;99.90;;;;;;5014951;28;20049;-88
2021/11/30 14:00:59;;;;;;;11.00;5.45;;;12.30;99.90;;;;;;5037316;28;20052;-89
2021/11/30 14:03:43;;;;;;;7.88;3.67;;;12.20;99.90;;;;;;4969979;28;20054;-88
2021/11/30 14:06:37;;;;;;;10.43;3.60;;;12.20;99.90;;;;;;4989510;28;20065;-87
2021/11/30 14:09:11;;;;;;;11.93;4.57;;;12.20;99.90;;;;;;4991205;28;20057;-88
2021/11/30 14:11:46;;;;;;;6.57;4.20;;;12.20;99.90;;;;;;4987398;28;20374;-89
2021/11/30 14:14:33;;;;;;;8.65;3.45;;;12.20;99.90;;;;;;4972875;28;20129;-88
2021/11/30 14:17:05;;;;;;;7.40;3.10;;;12.20;99.90;;;;;;5013389;28;20061;-87
2021/11/30 14:19:39;;;;;;;7.95;2.92;;;12.20;99.90;;;;;;4993764;28;20446;-86
2021/11/30 14:22:09;;;;;;;6.20;3.38;;;12.20;99.90;;;;;;4970682;28;20050;-86
2021/11/30 14:25:07;;;;;;;5.17;3.47;;;12.20;99.90;;;;;;4982175;28;20053;-86
2021/11/30 14:27:41;;;;;;;8.05;4.15;;;12.20;99.90;;;;;;4985843;28;20597;-88
2021/11/30 14:30:16;;;;;;;9.15;4.32;;;12.20;99.90;;;;;;4974742;28;20384;-87
2021/11/30 14:32:46;;;;;;;6.53;4.47;;;12.20;99.90;;;;;;4991153;28;20054;-88
2021/11/30 14:35:16;;;;;;;8.02;5.03;;;12.10;99.90;;;;;;4989387;28;20125;-92
2021/11/30 14:38:04;;;;;;;11.23;4.57;;;12.20;99.90;;;;;;5023629;28;20056;-94
2021/11/30 14:40:38;;;;;;;12.93;4.95;;;12.20;99.90;;;;;;4997775;28;20050;-93
2021/11/30 14:43:09;;;;;;;9.02;5.00;;;12.10;99.90;;;;;;5021935;28;20054;-89
2021/11/30 14:45:47;;;;;;;14.50;6.10;;;12.10;99.90;;;;;;4998543;28;20066;-91
2021/11/30 14:48:20;;;;;;;9.48;5.25;;;12.10;99.90;;;;;;4999731;28;20049;-90
2021/11/30 14:50:56;;;;;;;19.65;6.30;;;12.10;99.90;;;;;;5002062;28;20041;-91
2021/11/30 14:53:35;;;;;;;10.50;5.15;;;12.10;99.90;;;;;;4999433;28;20413;-90
2021/11/30 14:56:13;;;;;;;11.65;5.32;;;12.10;99.90;;;;;;4987123;28;20061;-90
2021/11/30 14:58:42;;;;;;;13.27;5.55;;;12.10;99.90;;;;;;5002889;28;20058;-89
2021/11/30 15:01:31;;;;;;;12.00;5.07;;;12.10;99.90;;;;;;5012363;28;20060;-88
2021/11/30 15:04:07;;;;;;;12.82;5.40;;;12.10;99.90;;;;;;5017615;28;20045;-88
2021/11/30 15:06:43;;;;;;;14.35;4.53;;;12.10;99.90;;;;;;5030569;28;20056;-93
2021/11/30 15:09:17;;;;;;;7.22;4.85;;;12.10;99.90;;;;;;4997736;28;20053;-91
2021/11/30 15:11:54;;;;;;;10.48;4.35;;;12.00;99.90;;;;;;5021635;28;20045;-91
2021/11/30 15:14:39;;;;;;;7.10;3.92;;;12.10;99.90;;;;;;5021614;28;20050;-88
2021/11/30 15:17:12;;;;;;;10.45;4.32;;;12.60;99.90;;;;;;5002751;28;20409;-89
2021/11/30 15:19:43;;;;;;;8.85;3.35;;;12.10;99.90;;;;;;5014330;28;20054;-89
2021/11/30 15:22:25;;;;;;;5.88;3.72;;;12.10;99.90;;;;;;5007439;28;20082;-89
2021/11/30 15:25:12;;;;;;;11.05;4.53;;;12.10;99.90;;;;;;4992950;28;20057;-90
2021/11/30 15:27:45;;;;;;;6.97;2.97;;;12.10;99.90;;;;;;4985264;28;20502;-92
2021/11/30 15:30:13;;;;;;;10.80;2.60;;;12.00;99.90;;;;;;4998698;28;20053;-90
2021/11/30 15:32:41;;;;;;;8.20;2.80;;;12.10;99.90;;;;;;5011400;28;20303;-91